Terminal Aerodrome Forecast
Issued by NWS Cleveland, OH

Home | Current Version | Previous Version | Text Only | Print | Product List | Glossary Off
Versions: 1 2 3 4 5 6 7 8 9 10 11 12 13 14 15

818
FTUS41 KCLE 261120
TAFCAK
TAF
KCAK 261120Z 2612/2712 14007KT P6SM FEW250
      TEMPO 2612/2614 5SM BR OVC004
     FM261800 16010G18KT P6SM BKN250
     FM270000 17010KT P6SM BKN250=

USA.gov is the U.S. government's official web portal to all federal, state and local government web resources and services.